Terminal Aerodrome Forecast
Issued by NWS

Home | Current Version | Previous Version | Text Only | Print | Product List | Glossary On
Versions: 1 2 3 4 5 6 7 8 9 10 11 12 13 14 15 16 17 18 19 20 21 22 23 24
632
FTUS42 KCAE 212338
TAFOGB
TAF
KOGB 212338Z 2200/2224 00000KT P6SM SKC
     FM221300 14005KT P6SM BKN030
     FM222100 17006KT P6SM VCSH SCT015 OVC030=

USA.gov is the U.S. government's official web portal to all federal, state and local government web resources and services.